sensor_id;sensor_type;location;lat;lon;timestamp;temperature;humidity
20911;DHT22;10615;42.702;23.314;2022-07-23T00:00:20;23.00;57.70
20911;DHT22;10615;42.702;23.314;2022-07-23T00:01:22;23.00;57.80
20911;DHT22;10615;42.702;23.314;2022-07-23T00:02:23;22.90;57.80
20911;DHT22;10615;42.702;23.314;2022-07-23T00:03:23;22.90;57.90
20911;DHT22;10615;42.702;23.314;2022-07-23T00:04:25;22.80;58.00
20911;DHT22;10615;42.702;23.314;2022-07-23T00:05:25;22.80;58.20
20911;DHT22;10615;42.702;23.314;2022-07-23T00:06:26;22.80;58.20
20911;DHT22;10615;42.702;23.314;2022-07-23T00:07:27;22.70;58.20
20911;DHT22;10615;42.702;23.314;2022-07-23T00:08:28;22.70;58.30
20911;DHT22;10615;42.702;23.314;2022-07-23T00:09:28;22.70;58.20
20911;DHT22;10615;42.702;23.314;2022-07-23T00:10:31;22.70;58.20
20911;DHT22;10615;42.702;23.314;2022-07-23T00:11:32;22.70;58.20
20911;DHT22;10615;42.702;23.314;2022-07-23T00:12:33;22.70;58.20
20911;DHT22;10615;42.702;23.314;2022-07-23T00:13:34;21.80;57.80
20911;DHT22;10615;42.702;23.314;2022-07-23T00:14:34;22.70;58.20
20911;DHT22;10615;42.702;23.314;2022-07-23T00:15:35;22.70;58.20
20911;DHT22;10615;42.702;23.314;2022-07-23T00:16:36;22.70;58.20
20911;DHT22;10615;42.702;23.314;2022-07-23T00:17:37;22.70;58.30
20911;DHT22;10615;42.702;23.314;2022-07-23T00:18:37;22.70;58.40
20911;DHT22;10615;42.702;23.314;2022-07-23T00:19:38;22.70;58.40
20911;DHT22;10615;42.702;23.314;2022-07-23T00:20:39;22.70;58.40
20911;DHT22;10615;42.702;23.314;2022-07-23T00:21:39;22.70;58.40
20911;DHT22;10615;42.702;23.314;2022-07-23T00:22:51;22.70;58.50
20911;DHT22;10615;42.702;23.314;2022-07-23T00:23:52;22.70;58.60
20911;DHT22;10615;42.702;23.314;2022-07-23T00:24:52;22.70;58.80
20911;DHT22;10615;42.702;23.314;2022-07-23T00:25:53;22.70;58.60
20911;DHT22;10615;42.702;23.314;2022-07-23T00:26:54;22.70;58.60
20911;DHT22;10615;42.702;23.314;2022-07-23T00:27:54;22.70;58.60
20911;DHT22;10615;42.702;23.314;2022-07-23T00:28:55;22.70;58.60
20911;DHT22;10615;42.702;23.314;2022-07-23T00:29:56;22.60;58.60
20911;DHT22;10615;42.702;23.314;2022-07-23T00:30:56;22.60;58.70
20911;DHT22;10615;42.702;23.314;2022-07-23T00:31:57;22.60;58.70
20911;DHT22;10615;42.702;23.314;2022-07-23T00:33:00;22.60;58.80
20911;DHT22;10615;42.702;23.314;2022-07-23T00:34:01;22.60;58.80
20911;DHT22;10615;42.702;23.314;2022-07-23T00:35:02;22.60;58.80
20911;DHT22;10615;42.702;23.314;2022-07-23T00:36:03;22.60;58.90
20911;DHT22;10615;42.702;23.314;2022-07-23T00:37:04;22.60;58.90
20911;DHT22;10615;42.702;23.314;2022-07-23T00:38:05;22.60;59.00
20911;DHT22;10615;42.702;23.314;2022-07-23T00:39:05;22.50;58.90
20911;DHT22;10615;42.702;23.314;2022-07-23T00:40:07;22.50;59.00
20911;DHT22;10615;42.702;23.314;2022-07-23T00:41:07;22.50;59.10
20911;DHT22;10615;42.702;23.314;2022-07-23T00:42:08;22.40;59.40
20911;DHT22;10615;42.702;23.314;2022-07-23T00:43:09;22.40;59.50
20911;DHT22;10615;42.702;23.314;2022-07-23T00:44:17;22.40;59.60
20911;DHT22;10615;42.702;23.314;2022-07-23T00:45:19;22.40;59.70
20911;DHT22;10615;42.702;23.314;2022-07-23T00:46:22;22.30;59.70
20911;DHT22;10615;42.702;23.314;2022-07-23T00:47:23;22.30;59.80
20911;DHT22;10615;42.702;23.314;2022-07-23T00:48:24;22.30;59.90
20911;DHT22;10615;42.702;23.314;2022-07-23T00:49:27;22.30;59.90
20911;DHT22;10615;42.702;23.314;2022-07-23T00:50:28;22.40;60.00
20911;DHT22;10615;42.702;23.314;2022-07-23T00:51:29;22.30;59.90
20911;DHT22;10615;42.702;23.314;2022-07-23T00:52:31;22.30;59.90
20911;DHT22;10615;42.702;23.314;2022-07-23T00:53:31;22.30;59.90
20911;DHT22;10615;42.702;23.314;2022-07-23T00:54:32;22.30;60.00
20911;DHT22;10615;42.702;23.314;2022-07-23T00:55:33;22.40;60.10
20911;DHT22;10615;42.702;23.314;2022-07-23T00:56:34;22.40;60.10
20911;DHT22;10615;42.702;23.314;2022-07-23T00:57:37;22.40;60.10
20911;DHT22;10615;42.702;23.314;2022-07-23T00:58:39;22.40;60.10
20911;DHT22;10615;42.702;23.314;2022-07-23T00:59:42;22.40;60.20
20911;DHT22;10615;42.702;23.314;2022-07-23T01:00:43;22.30;60.50
20911;DHT22;10615;42.702;23.314;2022-07-23T01:01:43;22.30;60.50
20911;DHT22;10615;42.702;23.314;2022-07-23T01:02:45;22.30;60.60
20911;DHT22;10615;42.702;23.314;2022-07-23T01:03:46;22.30;60.80
20911;DHT22;10615;42.702;23.314;2022-07-23T01:04:47;22.30;60.80
20911;DHT22;10615;42.702;23.314;2022-07-23T01:05:47;22.30;60.90
20911;DHT22;10615;42.702;23.314;2022-07-23T01:06:48;22.30;61.00
20911;DHT22;10615;42.702;23.314;2022-07-23T01:08:51;22.30;60.30
20911;DHT22;10615;42.702;23.314;2022-07-23T01:09:54;22.30;61.10
20911;DHT22;10615;42.702;23.314;2022-07-23T01:10:55;22.30;61.20
20911;DHT22;10615;42.702;23.314;2022-07-23T01:11:56;22.30;61.10
20911;DHT22;10615;42.702;23.314;2022-07-23T01:12:59;22.20;61.00
20911;DHT22;10615;42.702;23.314;2022-07-23T01:14:11;22.20;60.80
20911;DHT22;10615;42.702;23.314;2022-07-23T01:15:12;22.20;60.50
20911;DHT22;10615;42.702;23.314;2022-07-23T01:16:12;22.10;60.30
20911;DHT22;10615;42.702;23.314;2022-07-23T01:17:13;22.10;60.20
20911;DHT22;10615;42.702;23.314;2022-07-23T01:18:14;22.10;60.20
20911;DHT22;10615;42.702;23.314;2022-07-23T01:19:18;22.10;60.10
20911;DHT22;10615;42.702;23.314;2022-07-23T01:20:19;22.00;60.00
20911;DHT22;10615;42.702;23.314;2022-07-23T01:21:20;22.00;60.10
20911;DHT22;10615;42.702;23.314;2022-07-23T01:22:22;22.00;60.00
20911;DHT22;10615;42.702;23.314;2022-07-23T01:23:23;22.00;59.90
20911;DHT22;10615;42.702;23.314;2022-07-23T01:24:24;22.00;60.00
20911;DHT22;10615;42.702;23.314;2022-07-23T01:25:25;22.00;60.80
20911;DHT22;10615;42.702;23.314;2022-07-23T01:26:25;22.00;60.00
20911;DHT22;10615;42.702;23.314;2022-07-23T01:27:26;22.00;60.10
20911;DHT22;10615;42.702;23.314;2022-07-23T01:28:27;22.00;60.10
20911;DHT22;10615;42.702;23.314;2022-07-23T01:29:27;22.00;60.10
20911;DHT22;10615;42.702;23.314;2022-07-23T01:30:28;22.00;60.20
20911;DHT22;10615;42.702;23.314;2022-07-23T01:31:29;22.00;60.20
20911;DHT22;10615;42.702;23.314;2022-07-23T01:32:30;22.00;60.20
20911;DHT22;10615;42.702;23.314;2022-07-23T01:33:31;22.10;60.20
20911;DHT22;10615;42.702;23.314;2022-07-23T01:34:32;22.10;60.20
20911;DHT22;10615;42.702;23.314;2022-07-23T01:35:33;22.10;60.20
20911;DHT22;10615;42.702;23.314;2022-07-23T01:36:34;22.10;60.20
20911;DHT22;10615;42.702;23.314;2022-07-23T01:37:35;22.10;60.20
20911;DHT22;10615;42.702;23.314;2022-07-23T01:38:36;22.10;60.20
20911;DHT22;10615;42.702;23.314;2022-07-23T01:39:37;22.10;60.10
20911;DHT22;10615;42.702;23.314;2022-07-23T01:40:38;22.10;60.00
20911;DHT22;10615;42.702;23.314;2022-07-23T01:41:38;22.20;60.00
20911;DHT22;10615;42.702;23.314;2022-07-23T01:42:39;22.20;60.00
20911;DHT22;10615;42.702;23.314;2022-07-23T01:43:40;22.20;60.10
20911;DHT22;10615;42.702;23.314;2022-07-23T01:44:40;22.20;60.10
20911;DHT22;10615;42.702;23.314;2022-07-23T01:45:41;22.20;60.00
20911;DHT22;10615;42.702;23.314;2022-07-23T01:46:44;22.10;60.00
20911;DHT22;10615;42.702;23.314;2022-07-23T01:47:45;22.10;59.90
20911;DHT22;10615;42.702;23.314;2022-07-23T01:48:46;22.10;60.00
20911;DHT22;10615;42.702;23.314;2022-07-23T01:49:47;22.10;60.00
20911;DHT22;10615;42.702;23.314;2022-07-23T01:50:47;22.10;60.00
20911;DHT22;10615;42.702;23.314;2022-07-23T01:51:48;22.10;59.90
20911;DHT22;10615;42.702;23.314;2022-07-23T01:53:01;22.10;59.90
20911;DHT22;10615;42.702;23.314;2022-07-23T01:54:02;22.10;60.00
20911;DHT22;10615;42.702;23.314;2022-07-23T01:55:03;22.10;60.20
20911;DHT22;10615;42.702;23.314;2022-07-23T01:56:04;22.10;60.30
20911;DHT22;10615;42.702;23.314;2022-07-23T01:57:05;22.10;60.90
20911;DHT22;10615;42.702;23.314;2022-07-23T01:58:06;22.00;60.80
20911;DHT22;10615;42.702;23.314;2022-07-23T01:59:07;22.00;61.00
20911;DHT22;10615;42.702;23.314;2022-07-23T02:00:08;22.00;61.30
20911;DHT22;10615;42.702;23.314;2022-07-23T02:01:09;22.00;61.50
20911;DHT22;10615;42.702;23.314;2022-07-23T02:02:10;22.00;61.70
20911;DHT22;10615;42.702;23.314;2022-07-23T02:03:10;22.00;61.90
20911;DHT22;10615;42.702;23.314;2022-07-23T02:04:11;21.90;62.10
20911;DHT22;10615;42.702;23.314;2022-07-23T02:05:12;21.90;62.20
20911;DHT22;10615;42.702;23.314;2022-07-23T02:06:12;21.90;62.40
20911;DHT22;10615;42.702;23.314;2022-07-23T02:07:13;21.90;62.40
20911;DHT22;10615;42.702;23.314;2022-07-23T02:08:14;21.90;62.60
20911;DHT22;10615;42.702;23.314;2022-07-23T02:09:15;21.90;62.70
20911;DHT22;10615;42.702;23.314;2022-07-23T02:10:16;21.80;62.60
20911;DHT22;10615;42.702;23.314;2022-07-23T02:11:16;21.80;62.70
20911;DHT22;10615;42.702;23.314;2022-07-23T02:12:17;21.80;62.80
20911;DHT22;10615;42.702;23.314;2022-07-23T02:13:18;21.80;62.80
20911;DHT22;10615;42.702;23.314;2022-07-23T02:14:18;21.80;62.90
20911;DHT22;10615;42.702;23.314;2022-07-23T02:15:19;21.80;63.00
20911;DHT22;10615;42.702;23.314;2022-07-23T02:16:20;21.80;63.00
20911;DHT22;10615;42.702;23.314;2022-07-23T02:17:21;21.80;63.00
20911;DHT22;10615;42.702;23.314;2022-07-23T02:18:21;21.80;63.00
20911;DHT22;10615;42.702;23.314;2022-07-23T02:19:22;21.80;63.00
20911;DHT22;10615;42.702;23.314;2022-07-23T02:20:24;21.70;63.00
20911;DHT22;10615;42.702;23.314;2022-07-23T02:21:24;21.70;63.00
20911;DHT22;10615;42.702;23.314;2022-07-23T02:22:25;21.70;63.10
20911;DHT22;10615;42.702;23.314;2022-07-23T02:23:26;21.70;63.10
20911;DHT22;10615;42.702;23.314;2022-07-23T02:24:26;21.60;63.00
20911;DHT22;10615;42.702;23.314;2022-07-23T02:25:27;21.70;63.10
20911;DHT22;10615;42.702;23.314;2022-07-23T02:26:28;21.60;63.10
20911;DHT22;10615;42.702;23.314;2022-07-23T02:27:28;21.60;63.10
20911;DHT22;10615;42.702;23.314;2022-07-23T02:28:29;21.60;63.10
20911;DHT22;10615;42.702;23.314;2022-07-23T02:29:30;21.60;63.20
20911;DHT22;10615;42.702;23.314;2022-07-23T02:30:30;21.60;63.30
20911;DHT22;10615;42.702;23.314;2022-07-23T02:31:31;21.60;63.40
20911;DHT22;10615;42.702;23.314;2022-07-23T02:32:32;21.50;63.30
20911;DHT22;10615;42.702;23.314;2022-07-23T02:33:33;21.50;63.30
20911;DHT22;10615;42.702;23.314;2022-07-23T02:34:34;21.50;63.40
20911;DHT22;10615;42.702;23.314;2022-07-23T02:35:35;21.50;63.50
20911;DHT22;10615;42.702;23.314;2022-07-23T02:36:35;21.50;63.60
20911;DHT22;10615;42.702;23.314;2022-07-23T02:37:36;21.50;63.60
20911;DHT22;10615;42.702;23.314;2022-07-23T02:38:37;21.50;63.60
20911;DHT22;10615;42.702;23.314;2022-07-23T02:39:37;21.50;63.60
20911;DHT22;10615;42.702;23.314;2022-07-23T02:40:38;21.50;63.60
20911;DHT22;10615;42.702;23.314;2022-07-23T02:41:39;21.50;63.50
20911;DHT22;10615;42.702;23.314;2022-07-23T02:42:40;21.50;63.50
20911;DHT22;10615;42.702;23.314;2022-07-23T02:43:41;21.50;63.90
20911;DHT22;10615;42.702;23.314;2022-07-23T02:44:41;21.50;63.50
20911;DHT22;10615;42.702;23.314;2022-07-23T02:45:42;21.50;63.50
20911;DHT22;10615;42.702;23.314;2022-07-23T02:46:43;21.50;63.40
20911;DHT22;10615;42.702;23.314;2022-07-23T02:47:43;21.50;63.60
20911;DHT22;10615;42.702;23.314;2022-07-23T02:48:44;21.40;63.60
20911;DHT22;10615;42.702;23.314;2022-07-23T02:49:45;21.40;63.60
20911;DHT22;10615;42.702;23.314;2022-07-23T02:50:45;21.40;63.60
20911;DHT22;10615;42.702;23.314;2022-07-23T02:51:46;21.40;63.60
20911;DHT22;10615;42.702;23.314;2022-07-23T02:52:47;21.30;63.70
20911;DHT22;10615;42.702;23.314;2022-07-23T02:53:47;21.30;63.80
20911;DHT22;10615;42.702;23.314;2022-07-23T02:54:48;21.30;63.90
20911;DHT22;10615;42.702;23.314;2022-07-23T02:55:49;21.30;63.90
20911;DHT22;10615;42.702;23.314;2022-07-23T02:56:50;21.20;63.90
20911;DHT22;10615;42.702;23.314;2022-07-23T02:57:53;21.20;64.00
20911;DHT22;10615;42.702;23.314;2022-07-23T02:58:54;21.20;64.10
20911;DHT22;10615;42.702;23.314;2022-07-23T02:59:55;21.10;64.20
20911;DHT22;10615;42.702;23.314;2022-07-23T03:00:55;21.20;64.20
20911;DHT22;10615;42.702;23.314;2022-07-23T03:01:56;21.10;64.30
20911;DHT22;10615;42.702;23.314;2022-07-23T03:02:57;21.10;64.50
20911;DHT22;10615;42.702;23.314;2022-07-23T03:03:57;21.10;64.70
20911;DHT22;10615;42.702;23.314;2022-07-23T03:04:58;21.00;64.80
20911;DHT22;10615;42.702;23.314;2022-07-23T03:05:59;21.00;64.90
20911;DHT22;10615;42.702;23.314;2022-07-23T03:06:59;21.00;65.00
20911;DHT22;10615;42.702;23.314;2022-07-23T03:08:00;21.00;65.20
20911;DHT22;10615;42.702;23.314;2022-07-23T03:09:02;20.90;65.30
20911;DHT22;10615;42.702;23.314;2022-07-23T03:10:03;20.90;65.50
20911;DHT22;10615;42.702;23.314;2022-07-23T03:11:04;21.00;66.40
20911;DHT22;10615;42.702;23.314;2022-07-23T03:12:07;21.00;65.50
20911;DHT22;10615;42.702;23.314;2022-07-23T03:13:08;21.00;65.50
20911;DHT22;10615;42.702;23.314;2022-07-23T03:14:09;21.00;65.50
20911;DHT22;10615;42.702;23.314;2022-07-23T03:15:10;21.10;65.50
20911;DHT22;10615;42.702;23.314;2022-07-23T03:16:10;21.10;65.30
20911;DHT22;10615;42.702;23.314;2022-07-23T03:17:11;21.10;65.20
20911;DHT22;10615;42.702;23.314;2022-07-23T03:18:12;21.10;65.10
20911;DHT22;10615;42.702;23.314;2022-07-23T03:19:12;21.10;65.00
20911;DHT22;10615;42.702;23.314;2022-07-23T03:20:13;21.10;64.90
20911;DHT22;10615;42.702;23.314;2022-07-23T03:21:14;21.10;65.00
20911;DHT22;10615;42.702;23.314;2022-07-23T03:22:15;21.10;65.00
20911;DHT22;10615;42.702;23.314;2022-07-23T03:23:16;21.10;65.10
20911;DHT22;10615;42.702;23.314;2022-07-23T03:24:17;21.00;65.20
20911;DHT22;10615;42.702;23.314;2022-07-23T03:25:18;21.00;65.30
20911;DHT22;10615;42.702;23.314;2022-07-23T03:26:19;21.00;65.40
20911;DHT22;10615;42.702;23.314;2022-07-23T03:27:21;21.00;65.50
20911;DHT22;10615;42.702;23.314;2022-07-23T03:28:21;21.00;65.50
20911;DHT22;10615;42.702;23.314;2022-07-23T03:29:22;21.00;65.50
20911;DHT22;10615;42.702;23.314;2022-07-23T03:30:23;21.00;65.60
20911;DHT22;10615;42.702;23.314;2022-07-23T03:31:23;21.10;65.70
20911;DHT22;10615;42.702;23.314;2022-07-23T03:32:24;21.10;65.50
20911;DHT22;10615;42.702;23.314;2022-07-23T03:33:25;21.10;65.50
20911;DHT22;10615;42.702;23.314;2022-07-23T03:34:26;21.10;65.50
20911;DHT22;10615;42.702;23.314;2022-07-23T03:35:27;21.10;65.50
20911;DHT22;10615;42.702;23.314;2022-07-23T03:36:27;21.20;65.40
20911;DHT22;10615;42.702;23.314;2022-07-23T03:37:28;21.20;65.30
20911;DHT22;10615;42.702;23.314;2022-07-23T03:38:29;21.20;65.20
20911;DHT22;10615;42.702;23.314;2022-07-23T03:39:29;21.30;65.10
20911;DHT22;10615;42.702;23.314;2022-07-23T03:40:30;21.30;65.00
20911;DHT22;10615;42.702;23.314;2022-07-23T03:41:31;21.40;65.10
20911;DHT22;10615;42.702;23.314;2022-07-23T03:42:31;21.50;64.90
20911;DHT22;10615;42.702;23.314;2022-07-23T03:43:33;21.50;64.90
20911;DHT22;10615;42.702;23.314;2022-07-23T03:44:34;21.60;64.70
20911;DHT22;10615;42.702;23.314;2022-07-23T03:45:37;21.70;64.40
20911;DHT22;10615;42.702;23.314;2022-07-23T03:46:37;21.70;64.20
20911;DHT22;10615;42.702;23.314;2022-07-23T03:47:38;21.80;64.20
20911;DHT22;10615;42.702;23.314;2022-07-23T03:48:39;21.90;64.00
20911;DHT22;10615;42.702;23.314;2022-07-23T03:49:40;21.90;63.80
20911;DHT22;10615;42.702;23.314;2022-07-23T03:50:40;22.10;63.70
20911;DHT22;10615;42.702;23.314;2022-07-23T03:51:41;22.20;63.40
20911;DHT22;10615;42.702;23.314;2022-07-23T03:52:42;22.30;63.10
20911;DHT22;10615;42.702;23.314;2022-07-23T03:53:42;22.50;62.90
20911;DHT22;10615;42.702;23.314;2022-07-23T03:54:43;22.60;62.40
20911;DHT22;10615;42.702;23.314;2022-07-23T03:55:44;22.70;62.00
20911;DHT22;10615;42.702;23.314;2022-07-23T03:56:44;22.90;61.60
20911;DHT22;10615;42.702;23.314;2022-07-23T03:57:45;23.00;61.20
20911;DHT22;10615;42.702;23.314;2022-07-23T03:58:46;23.10;60.70
20911;DHT22;10615;42.702;23.314;2022-07-23T03:59:46;23.20;60.40
20911;DHT22;10615;42.702;23.314;2022-07-23T04:00:47;23.40;60.00
20911;DHT22;10615;42.702;23.314;2022-07-23T04:01:48;23.50;59.70
20911;DHT22;10615;42.702;23.314;2022-07-23T04:02:49;23.70;59.40
20911;DHT22;10615;42.702;23.314;2022-07-23T04:03:49;23.80;59.10
20911;DHT22;10615;42.702;23.314;2022-07-23T04:04:50;24.10;58.60
20911;DHT22;10615;42.702;23.314;2022-07-23T04:05:51;24.20;58.10
20911;DHT22;10615;42.702;23.314;2022-07-23T04:06:51;24.40;57.80
20911;DHT22;10615;42.702;23.314;2022-07-23T04:07:52;24.50;57.30
20911;DHT22;10615;42.702;23.314;2022-07-23T04:08:53;24.70;56.90
20911;DHT22;10615;42.702;23.314;2022-07-23T04:09:54;24.80;56.50
20911;DHT22;10615;42.702;23.314;2022-07-23T04:10:55;25.00;56.00
20911;DHT22;10615;42.702;23.314;2022-07-23T04:11:55;25.00;55.60
20911;DHT22;10615;42.702;23.314;2022-07-23T04:12:56;25.10;55.30
20911;DHT22;10615;42.702;23.314;2022-07-23T04:13:57;25.20;55.20
20911;DHT22;10615;42.702;23.314;2022-07-23T04:14:57;25.30;54.90
20911;DHT22;10615;42.702;23.314;2022-07-23T04:15:58;25.40;54.70
20911;DHT22;10615;42.702;23.314;2022-07-23T04:16:59;25.50;54.40
20911;DHT22;10615;42.702;23.314;2022-07-23T04:18:00;25.70;54.10
20911;DHT22;10615;42.702;23.314;2022-07-23T04:19:01;25.80;53.80
20911;DHT22;10615;42.702;23.314;2022-07-23T04:20:02;25.90;53.50
20911;DHT22;10615;42.702;23.314;2022-07-23T04:21:03;26.10;53.30
20911;DHT22;10615;42.702;23.314;2022-07-23T04:22:04;26.30;53.00
20911;DHT22;10615;42.702;23.314;2022-07-23T04:23:04;26.50;52.60
20911;DHT22;10615;42.702;23.314;2022-07-23T04:24:05;26.70;52.40
20911;DHT22;10615;42.702;23.314;2022-07-23T04:25:06;26.80;51.70
20911;DHT22;10615;42.702;23.314;2022-07-23T04:26:07;27.00;51.30
20911;DHT22;10615;42.702;23.314;2022-07-23T04:27:08;27.20;50.90
20911;DHT22;10615;42.702;23.314;2022-07-23T04:28:09;27.40;50.50
20911;DHT22;10615;42.702;23.314;2022-07-23T04:29:10;27.60;50.10
20911;DHT22;10615;42.702;23.314;2022-07-23T04:30:11;27.80;49.80
20911;DHT22;10615;42.702;23.314;2022-07-23T04:31:12;27.90;49.40
20911;DHT22;10615;42.702;23.314;2022-07-23T04:32:12;28.00;49.00
20911;DHT22;10615;42.702;23.314;2022-07-23T04:33:13;28.10;48.80
20911;DHT22;10615;42.702;23.314;2022-07-23T04:34:14;28.40;48.60
20911;DHT22;10615;42.702;23.314;2022-07-23T04:35:14;28.60;48.20
20911;DHT22;10615;42.702;23.314;2022-07-23T04:36:15;28.90;47.80
20911;DHT22;10615;42.702;23.314;2022-07-23T04:37:16;29.20;47.40
20911;DHT22;10615;42.702;23.314;2022-07-23T04:38:16;29.50;47.10
20911;DHT22;10615;42.702;23.314;2022-07-23T04:39:17;29.70;46.60
20911;DHT22;10615;42.702;23.314;2022-07-23T04:40:18;29.90;46.30
20911;DHT22;10615;42.702;23.314;2022-07-23T04:41:18;30.10;45.90
20911;DHT22;10615;42.702;23.314;2022-07-23T04:42:19;30.40;45.40
20911;DHT22;10615;42.702;23.314;2022-07-23T04:43:20;30.70;44.80
20911;DHT22;10615;42.702;23.314;2022-07-23T04:44:20;31.10;44.30
20911;DHT22;10615;42.702;23.314;2022-07-23T04:45:21;31.50;43.70
20911;DHT22;10615;42.702;23.314;2022-07-23T04:46:23;31.70;43.00
20911;DHT22;10615;42.702;23.314;2022-07-23T04:47:24;32.10;42.50
20911;DHT22;10615;42.702;23.314;2022-07-23T04:48:25;32.50;41.90
20911;DHT22;10615;42.702;23.314;2022-07-23T04:49:26;32.70;41.20
20911;DHT22;10615;42.702;23.314;2022-07-23T04:50:26;33.20;40.70
20911;DHT22;10615;42.702;23.314;2022-07-23T04:51:27;33.60;40.00
20911;DHT22;10615;42.702;23.314;2022-07-23T04:52:29;33.80;39.10
20911;DHT22;10615;42.702;23.314;2022-07-23T04:53:30;34.20;38.70
20911;DHT22;10615;42.702;23.314;2022-07-23T04:54:30;34.70;38.00
20911;DHT22;10615;42.702;23.314;2022-07-23T04:55:31;35.10;37.10
20911;DHT22;10615;42.702;23.314;2022-07-23T04:56:32;35.50;36.30
20911;DHT22;10615;42.702;23.314;2022-07-23T04:57:32;36.00;35.60
20911;DHT22;10615;42.702;23.314;2022-07-23T04:58:33;36.50;34.70
20911;DHT22;10615;42.702;23.314;2022-07-23T04:59:34;36.90;34.10
20911;DHT22;10615;42.702;23.314;2022-07-23T05:00:35;37.40;33.40
20911;DHT22;10615;42.702;23.314;2022-07-23T05:01:35;37.90;32.80
20911;DHT22;10615;42.702;23.314;2022-07-23T05:02:36;38.20;32.10
20911;DHT22;10615;42.702;23.314;2022-07-23T05:03:37;38.50;31.50
20911;DHT22;10615;42.702;23.314;2022-07-23T05:04:37;38.60;31.10
20911;DHT22;10615;42.702;23.314;2022-07-23T05:05:39;38.60;30.70
20911;DHT22;10615;42.702;23.314;2022-07-23T05:06:39;38.50;30.40
20911;DHT22;10615;42.702;23.314;2022-07-23T05:07:40;38.30;30.60
20911;DHT22;10615;42.702;23.314;2022-07-23T05:08:41;38.10;30.90
20911;DHT22;10615;42.702;23.314;2022-07-23T05:09:41;37.90;31.10
20911;DHT22;10615;42.702;23.314;2022-07-23T05:10:42;37.80;31.30
20911;DHT22;10615;42.702;23.314;2022-07-23T05:11:43;37.70;31.40
20911;DHT22;10615;42.702;23.314;2022-07-23T05:12:43;37.80;31.70
20911;DHT22;10615;42.702;23.314;2022-07-23T05:13:44;37.70;31.60
20911;DHT22;10615;42.702;23.314;2022-07-23T05:14:45;37.80;31.60
20911;DHT22;10615;42.702;23.314;2022-07-23T05:15:45;37.90;31.50
20911;DHT22;10615;42.702;23.314;2022-07-23T05:16:46;38.20;31.40
20911;DHT22;10615;42.702;23.314;2022-07-23T05:17:47;38.70;31.30
20911;DHT22;10615;42.702;23.314;2022-07-23T05:18:48;39.30;30.60
20911;DHT22;10615;42.702;23.314;2022-07-23T05:19:48;39.90;29.90
20911;DHT22;10615;42.702;23.314;2022-07-23T05:20:49;40.40;29.40
20911;DHT22;10615;42.702;23.314;2022-07-23T05:21:50;41.00;28.80
20911;DHT22;10615;42.702;23.314;2022-07-23T05:22:50;41.70;27.50
20911;DHT22;10615;42.702;23.314;2022-07-23T05:23:51;42.00;27.90
20911;DHT22;10615;42.702;23.314;2022-07-23T05:24:52;42.50;27.50
20911;DHT22;10615;42.702;23.314;2022-07-23T05:25:52;43.20;26.20
20911;DHT22;10615;42.702;23.314;2022-07-23T05:26:53;43.40;26.40
20911;DHT22;10615;42.702;23.314;2022-07-23T05:27:54;43.80;26.10
20911;DHT22;10615;42.702;23.314;2022-07-23T05:28:54;44.20;25.70
20911;DHT22;10615;42.702;23.314;2022-07-23T05:29:55;44.60;25.40
20911;DHT22;10615;42.702;23.314;2022-07-23T05:30:56;45.20;25.20
20911;DHT22;10615;42.702;23.314;2022-07-23T05:31:56;45.80;24.70
20911;DHT22;10615;42.702;23.314;2022-07-23T05:32:57;46.20;24.30
20911;DHT22;10615;42.702;23.314;2022-07-23T05:33:58;46.60;24.00
20911;DHT22;10615;42.702;23.314;2022-07-23T05:34:58;47.30;23.00
20911;DHT22;10615;42.702;23.314;2022-07-23T05:36:03;47.40;23.40
20911;DHT22;10615;42.702;23.314;2022-07-23T05:37:04;47.90;23.70
20911;DHT22;10615;42.702;23.314;2022-07-23T05:38:05;48.40;23.40
20911;DHT22;10615;42.702;23.314;2022-07-23T05:39:06;48.80;22.40
20911;DHT22;10615;42.702;23.314;2022-07-23T05:40:08;49.20;22.00
20911;DHT22;10615;42.702;23.314;2022-07-23T05:41:09;49.60;21.60
20911;DHT22;10615;42.702;23.314;2022-07-23T05:42:10;50.00;21.30
20911;DHT22;10615;42.702;23.314;2022-07-23T05:43:11;50.30;21.00
20911;DHT22;10615;42.702;23.314;2022-07-23T05:44:11;50.60;20.60
20911;DHT22;10615;42.702;23.314;2022-07-23T05:45:12;50.80;20.50
20911;DHT22;10615;42.702;23.314;2022-07-23T05:46:13;51.30;20.40
20911;DHT22;10615;42.702;23.314;2022-07-23T05:47:13;51.60;20.00
20911;DHT22;10615;42.702;23.314;2022-07-23T05:48:14;51.70;19.70
20911;DHT22;10615;42.702;23.314;2022-07-23T05:49:15;51.70;19.60
20911;DHT22;10615;42.702;23.314;2022-07-23T05:50:16;51.70;19.50
20911;DHT22;10615;42.702;23.314;2022-07-23T05:51:21;51.70;19.40
20911;DHT22;10615;42.702;23.314;2022-07-23T05:52:21;52.00;19.30
20911;DHT22;10615;42.702;23.314;2022-07-23T05:53:22;52.10;19.30
20911;DHT22;10615;42.702;23.314;2022-07-23T05:54:23;52.20;19.20
20911;DHT22;10615;42.702;23.314;2022-07-23T05:55:24;52.60;19.10
20911;DHT22;10615;42.702;23.314;2022-07-23T05:56:24;52.80;18.90
20911;DHT22;10615;42.702;23.314;2022-07-23T05:57:25;52.90;18.80
20911;DHT22;10615;42.702;23.314;2022-07-23T05:58:26;53.00;18.70
20911;DHT22;10615;42.702;23.314;2022-07-23T05:59:27;53.00;18.70
20911;DHT22;10615;42.702;23.314;2022-07-23T06:00:29;53.00;18.80
20911;DHT22;10615;42.702;23.314;2022-07-23T06:01:30;53.00;18.80
20911;DHT22;10615;42.702;23.314;2022-07-23T06:02:31;53.20;18.70
20911;DHT22;10615;42.702;23.314;2022-07-23T06:03:31;53.20;18.60
20911;DHT22;10615;42.702;23.314;2022-07-23T06:04:32;53.30;18.50
20911;DHT22;10615;42.702;23.314;2022-07-23T06:05:33;53.50;18.50
20911;DHT22;10615;42.702;23.314;2022-07-23T06:06:34;53.70;18.50
20911;DHT22;10615;42.702;23.314;2022-07-23T06:08:36;53.80;17.70
20911;DHT22;10615;42.702;23.314;2022-07-23T06:09:36;53.90;18.30
20911;DHT22;10615;42.702;23.314;2022-07-23T06:10:37;53.80;18.30
20911;DHT22;10615;42.702;23.314;2022-07-23T06:11:38;53.90;18.30
20911;DHT22;10615;42.702;23.314;2022-07-23T06:12:38;54.10;18.30
20911;DHT22;10615;42.702;23.314;2022-07-23T06:13:39;54.20;18.10
20911;DHT22;10615;42.702;23.314;2022-07-23T06:14:40;54.30;18.20
20911;DHT22;10615;42.702;23.314;2022-07-23T06:15:40;54.50;18.10
20911;DHT22;10615;42.702;23.314;2022-07-23T06:16:41;54.70;17.90
20911;DHT22;10615;42.702;23.314;2022-07-23T06:17:42;54.80;17.80
20911;DHT22;10615;42.702;23.314;2022-07-23T06:18:42;54.80;17.70
20911;DHT22;10615;42.702;23.314;2022-07-23T06:19:44;54.70;17.70
20911;DHT22;10615;42.702;23.314;2022-07-23T06:20:44;54.80;17.80